Weather at Montreal / Les Cèdres Airport

Public forecast

Using degrees Celsius for public forecast. Weather courtesy of forecast.io.

Closest aviation weather report (METAR) to Montreal / Les Cèdres Airport

Closest report is Montreal / Pierre Elliott Trudeau International Airport, 16.0 nm (29.6 km) ENE. Retrieved 2021/10/27 21:00 UTC (2 hours ago):

CYUL 272100Z 03013G18KT 15SM OVC250 12/03 A2997 RMK CS8 SLP150

Closest aviation forecast (TAF) to Montreal / Les Cèdres Airport

Closest forecast is Montreal / Pierre Elliott Trudeau International Airport, 16.0 nm (29.6 km) ENE. Retrieved 2021/10/27 21:42 UTC (48 minutes ago):

TAF CYUL 272038Z 2721/2818 03015G25KT P6SM SCT210 BECMG 2722/2724 04012G22KT FM280900 04010KT P6SM BKN015 TEMPO 2809/2814 SCT015 BECMG 2811/2813 04010G20KT FM281400 04012G22KT P6SM BKN030 TEMPO 2814/2817 BKN020 RMK NXT FCST BY 280000Z